createdAt,value
2018-11-14T00:00:37.854Z,6.78
2018-11-14T00:01:37.756Z,6.70
2018-11-14T00:02:37.705Z,6.63
2018-11-14T00:03:37.649Z,6.64
2018-11-14T00:04:37.642Z,6.64
2018-11-14T00:05:37.538Z,6.51
2018-11-14T00:06:37.489Z,6.59
2018-11-14T00:07:37.436Z,6.57
2018-11-14T00:08:37.376Z,6.49
2018-11-14T00:09:37.483Z,6.41
2018-11-14T00:10:37.269Z,6.41
2018-11-14T00:11:37.214Z,6.44
2018-11-14T00:12:37.159Z,6.33
2018-11-14T00:13:37.106Z,6.28
2018-11-14T00:14:37.089Z,6.41
2018-11-14T00:15:36.993Z,6.41
2018-11-14T00:16:36.939Z,6.38
2018-11-14T00:17:36.885Z,6.31
2018-11-14T00:18:36.831Z,6.42
2018-11-14T00:19:36.819Z,6.39
2018-11-14T00:20:36.718Z,6.26
2018-11-14T00:21:36.663Z,6.42
2018-11-14T00:22:36.608Z,6.44
2018-11-14T00:23:36.557Z,6.39
2018-11-14T00:24:36.582Z,6.39
2018-11-14T00:25:36.448Z,6.41
2018-11-14T00:26:36.412Z,6.41
2018-11-14T00:27:36.337Z,6.45
2018-11-14T00:28:36.503Z,6.42
2018-11-14T00:29:36.275Z,6.45
2018-11-14T00:30:36.169Z,6.35
2018-11-14T00:31:36.116Z,6.33
2018-11-14T00:32:36.063Z,6.27
2018-11-14T00:33:36.007Z,6.26
2018-11-14T00:34:36.048Z,6.27
2018-11-14T00:35:35.952Z,6.28
2018-11-14T00:36:35.843Z,6.27
2018-11-14T00:37:35.789Z,6.26
2018-11-14T00:38:35.733Z,6.14
2018-11-14T00:39:35.717Z,6.17
2018-11-14T00:40:35.620Z,6.20
2018-11-14T00:41:35.574Z,6.16
2018-11-14T00:42:35.512Z,6.16
2018-11-14T00:43:35.489Z,6.12
2018-11-14T00:44:35.410Z,6.17
2018-11-14T00:45:35.386Z,6.22
2018-11-14T00:46:35.293Z,6.22
2018-11-14T00:47:35.239Z,6.17
2018-11-14T00:48:35.179Z,6.19
2018-11-14T00:49:35.157Z,6.19
2018-11-14T00:50:35.068Z,6.27
2018-11-14T00:51:35.021Z,6.22
2018-11-14T00:52:34.959Z,6.27
2018-11-14T00:53:34.906Z,6.28
2018-11-14T00:54:34.889Z,6.30
2018-11-14T00:55:34.821Z,6.28
2018-11-14T00:56:34.772Z,6.35
2018-11-14T00:57:34.684Z,6.26
2018-11-14T00:58:34.628Z,6.22
2018-11-14T00:59:34.578Z,6.30
2018-11-14T01:00:34.554Z,6.45
2018-11-14T01:01:34.496Z,6.39
2018-11-14T01:02:34.457Z,6.46
2018-11-14T01:03:34.356Z,6.39
2018-11-14T01:04:34.299Z,6.30
2018-11-14T01:05:34.276Z,6.24
2018-11-14T01:06:34.193Z,6.30
2018-11-14T01:07:34.135Z,6.27
2018-11-14T01:08:34.112Z,6.27
2018-11-14T01:09:34.033Z,6.26
2018-11-14T01:10:33.971Z,6.22
2018-11-14T01:11:33.918Z,6.24
2018-11-14T01:12:33.857Z,6.20
2018-11-14T01:13:33.834Z,6.16
2018-11-14T01:14:33.756Z,6.12
2018-11-14T01:15:33.701Z,6.05
2018-11-14T01:16:33.646Z,6.05
2018-11-14T01:17:33.611Z,6.02
2018-11-14T01:18:33.530Z,6.07
2018-11-14T01:19:33.475Z,6.02
2018-11-14T01:20:33.416Z,6.14
2018-11-14T01:21:33.387Z,6.14
2018-11-14T01:22:33.339Z,6.04
2018-11-14T01:23:33.251Z,6.11
2018-11-14T01:24:33.197Z,6.04
2018-11-14T01:25:33.188Z,6.16
2018-11-14T01:26:33.087Z,6.02
2018-11-14T01:27:33.035Z,6.19
2018-11-14T01:28:32.977Z,6.12
2018-11-14T01:29:32.923Z,6.12
2018-11-14T01:30:32.903Z,6.04
2018-11-14T01:31:32.813Z,6.09
2018-11-14T01:32:32.762Z,6.12
2018-11-14T01:33:32.701Z,6.04
2018-11-14T01:34:32.677Z,6.08
2018-11-14T01:35:32.627Z,6.02
2018-11-14T01:36:32.543Z,6.01
2018-11-14T01:37:32.479Z,6.01
2018-11-14T01:38:32.427Z,6.08
2018-11-14T01:39:32.402Z,6.08
2018-11-14T01:40:32.347Z,6.08
2018-11-14T01:41:32.266Z,6.08
2018-11-14T01:42:32.204Z,6.05
2018-11-14T01:43:32.150Z,6.05
2018-11-14T01:44:32.093Z,6.04
2018-11-14T01:45:32.070Z,6.16
2018-11-14T01:46:32.015Z,6.11
2018-11-14T01:47:31.932Z,6.04
2018-11-14T01:48:31.878Z,6.22
2018-11-14T01:49:31.817Z,6.14
2018-11-14T01:50:31.762Z,6.20
2018-11-14T01:51:31.736Z,6.17
2018-11-14T01:52:31.700Z,6.19
2018-11-14T01:53:31.600Z,6.14
2018-11-14T01:54:31.542Z,6.19
2018-11-14T01:55:31.487Z,6.14
2018-11-14T01:56:31.428Z,6.17
2018-11-14T01:57:31.400Z,6.12
2018-11-14T01:58:31.320Z,6.22
2018-11-14T01:59:31.265Z,6.16
2018-11-14T02:00:31.214Z,6.16
2018-11-14T02:01:31.158Z,6.12
2018-11-14T02:02:31.123Z,6.19
2018-11-14T02:03:31.053Z,6.19
2018-11-14T02:04:30.987Z,6.16
2018-11-14T02:05:30.933Z,6.14
2018-11-14T02:06:30.877Z,6.17
2018-11-14T02:07:30.848Z,6.12
2018-11-14T02:08:30.766Z,6.08
2018-11-14T02:09:30.715Z,6.08
2018-11-14T02:10:30.656Z,5.93
2018-11-14T02:11:30.602Z,5.89
2018-11-14T02:12:30.572Z,5.86
2018-11-14T02:13:30.493Z,5.82
2018-11-14T02:14:30.460Z,5.79
2018-11-14T02:15:30.383Z,5.76
2018-11-14T02:16:30.328Z,5.71
2018-11-14T02:17:30.277Z,5.72
2018-11-14T02:18:30.257Z,5.66
2018-11-14T02:19:30.186Z,5.73
2018-11-14T02:20:30.106Z,5.73
2018-11-14T02:21:30.052Z,5.72
2018-11-14T02:22:29.996Z,5.71
2018-11-14T02:23:29.971Z,5.75
2018-11-14T02:24:29.883Z,5.68
2018-11-14T02:25:29.856Z,5.62
2018-11-14T02:26:29.773Z,5.56
2018-11-14T02:27:29.724Z,5.56
2018-11-14T02:28:29.663Z,5.57
2018-11-14T02:29:29.639Z,5.72
2018-11-14T02:30:29.560Z,5.68
2018-11-14T02:31:29.497Z,5.68
2018-11-14T02:32:29.453Z,5.71
2018-11-14T02:33:29.422Z,5.68
2018-11-14T02:34:29.333Z,5.75
2018-11-14T02:35:29.281Z,5.72
2018-11-14T02:36:29.226Z,5.65
2018-11-14T02:37:29.205Z,5.72
2018-11-14T02:38:29.217Z,5.66
2018-11-14T02:39:29.053Z,5.64
2018-11-14T02:40:29.024Z,5.72
2018-11-14T02:41:28.943Z,5.61
2018-11-14T02:42:28.912Z,5.61
2018-11-14T02:43:28.836Z,5.56
2018-11-14T02:44:28.778Z,5.62
2018-11-14T02:45:28.726Z,5.51
2018-11-14T02:46:28.723Z,5.44
2018-11-14T02:47:28.612Z,5.47
2018-11-14T02:48:28.559Z,5.43
2018-11-14T02:49:28.498Z,5.41
2018-11-14T02:50:28.446Z,5.35
2018-11-14T02:51:28.420Z,5.38
2018-11-14T02:52:28.341Z,5.44
2018-11-14T02:53:28.298Z,5.43
2018-11-14T02:54:28.227Z,5.38
2018-11-14T02:55:28.167Z,5.30
2018-11-14T02:56:28.146Z,5.32
2018-11-14T02:57:28.090Z,5.25
2018-11-14T02:58:27.999Z,5.32
2018-11-14T02:59:27.944Z,5.28
2018-11-14T03:00:27.902Z,5.32
2018-11-14T03:01:27.868Z,5.29
2018-11-14T03:02:27.782Z,5.29
2018-11-14T03:03:27.756Z,5.25
2018-11-14T03:04:27.666Z,5.35
2018-11-14T03:05:27.611Z,5.29
2018-11-14T03:06:27.589Z,5.25
2018-11-14T03:07:27.502Z,5.21
2018-11-14T03:08:27.444Z,5.18
2018-11-14T03:09:27.388Z,5.10
2018-11-14T03:10:27.348Z,5.11
2018-11-14T03:11:27.320Z,5.14
2018-11-14T03:12:27.256Z,5.11
2018-11-14T03:13:27.167Z,5.07
2018-11-14T03:14:27.109Z,5.08
2018-11-14T03:15:27.060Z,5.07
2018-11-14T03:16:27.036Z,5.00
2018-11-14T03:17:26.941Z,4.94
2018-11-14T03:18:26.889Z,4.92
2018-11-14T03:19:26.871Z,4.94
2018-11-14T03:20:26.775Z,4.92
2018-11-14T03:21:26.723Z,4.87
2018-11-14T03:22:26.668Z,4.97
2018-11-14T03:23:26.608Z,4.93
2018-11-14T03:24:26.588Z,4.92
2018-11-14T03:25:26.496Z,4.84
2018-11-14T03:26:26.443Z,4.90
2018-11-14T03:27:26.387Z,4.78
2018-11-14T03:28:26.333Z,4.84
2018-11-14T03:29:26.318Z,4.89
2018-11-14T03:30:26.227Z,4.84
2018-11-14T03:31:26.164Z,4.87
2018-11-14T03:32:26.150Z,4.90
2018-11-14T03:33:26.050Z,4.89
2018-11-14T03:34:26.002Z,4.87
2018-11-14T03:35:25.980Z,4.87
2018-11-14T03:36:25.883Z,4.86
2018-11-14T03:37:25.833Z,4.87
2018-11-14T03:38:25.770Z,4.80
2018-11-14T03:39:25.716Z,4.84
2018-11-14T03:40:25.710Z,4.87
2018-11-14T03:41:25.604Z,4.86
2018-11-14T03:42:25.550Z,4.86
2018-11-14T03:43:25.491Z,4.77
2018-11-14T03:44:25.434Z,4.74
2018-11-14T03:45:25.419Z,4.68
2018-11-14T03:46:25.331Z,4.67
2018-11-14T03:47:25.313Z,4.63
2018-11-14T03:48:25.217Z,4.55
2018-11-14T03:49:25.154Z,4.62
2018-11-14T03:50:25.099Z,4.66
2018-11-14T03:51:25.055Z,4.55
2018-11-14T03:52:25.018Z,4.67
2018-11-14T03:53:24.943Z,4.55
2018-11-14T03:54:24.879Z,4.70
2018-11-14T03:55:24.857Z,4.71
2018-11-14T03:56:24.762Z,4.71
2018-11-14T03:57:24.739Z,4.73
2018-11-14T03:58:24.741Z,4.78
2018-11-14T03:59:24.634Z,4.87
2018-11-14T04:00:24.539Z,4.87
2018-11-14T04:01:24.485Z,4.80
2018-11-14T04:02:24.428Z,4.80
2018-11-14T04:03:24.371Z,4.75
2018-11-14T04:04:24.347Z,4.87
2018-11-14T04:05:24.299Z,4.80
2018-11-14T04:06:24.209Z,4.87
2018-11-14T04:07:24.144Z,4.78
2018-11-14T04:08:24.090Z,4.92
2018-11-14T04:09:24.139Z,4.89
2018-11-14T04:10:23.977Z,4.87
2018-11-14T04:11:23.932Z,4.94
2018-11-14T04:12:23.876Z,4.93
2018-11-14T04:13:23.845Z,4.99
2018-11-14T04:14:23.751Z,4.96
2018-11-14T04:15:23.708Z,4.87
2018-11-14T04:16:23.637Z,4.94
2018-11-14T04:17:23.617Z,4.89
2018-11-14T04:18:23.527Z,4.97
2018-11-14T04:19:23.479Z,5.00
2018-11-14T04:20:23.417Z,5.12
2018-11-14T04:21:23.400Z,5.15
2018-11-14T04:22:23.305Z,5.07
2018-11-14T04:23:23.245Z,5.10
2018-11-14T04:24:23.199Z,5.15
2018-11-14T04:25:23.139Z,5.07
2018-11-14T04:26:23.103Z,5.12
2018-11-14T04:27:23.021Z,5.17
2018-11-14T04:28:22.969Z,5.20
2018-11-14T04:29:22.945Z,5.18
2018-11-14T04:30:22.861Z,5.21
2018-11-14T04:31:22.813Z,5.20
2018-11-14T04:32:22.745Z,5.17
2018-11-14T04:33:22.688Z,5.25
2018-11-14T04:34:22.660Z,5.28
2018-11-14T04:35:22.581Z,5.11
2018-11-14T04:36:22.519Z,5.21
2018-11-14T04:37:22.466Z,5.28
2018-11-14T04:38:22.404Z,5.30
2018-11-14T04:39:22.386Z,5.30
2018-11-14T04:40:22.291Z,5.23
2018-11-14T04:41:22.240Z,5.30
2018-11-14T04:42:22.188Z,5.26
2018-11-14T04:43:22.129Z,5.26
2018-11-14T04:44:22.109Z,5.28
2018-11-14T04:45:22.012Z,5.26
2018-11-14T04:46:21.958Z,5.36
2018-11-14T04:47:21.904Z,5.41
2018-11-14T04:48:21.886Z,5.54
2018-11-14T04:49:21.789Z,5.46
2018-11-14T04:50:21.738Z,5.47
2018-11-14T04:51:21.676Z,5.51
2018-11-14T04:52:21.619Z,5.59
2018-11-14T04:53:21.596Z,5.53
2018-11-14T04:54:21.513Z,5.62
2018-11-14T04:55:21.452Z,5.61
2018-11-14T04:56:21.394Z,5.71
2018-11-14T04:57:21.340Z,5.65
2018-11-14T04:58:21.407Z,5.64
2018-11-14T04:59:21.233Z,5.64
2018-11-14T05:00:21.186Z,5.72
2018-11-14T05:01:21.124Z,5.69
2018-11-14T05:02:21.072Z,5.79
2018-11-14T05:03:21.049Z,5.79
2018-11-14T05:04:20.952Z,5.79
2018-11-14T05:05:20.894Z,5.71
2018-11-14T05:06:20.839Z,5.73
2018-11-14T05:07:20.782Z,5.79
2018-11-14T05:08:20.763Z,5.71
2018-11-14T05:09:20.706Z,5.76
2018-11-14T05:10:20.654Z,5.69
2018-11-14T05:11:20.565Z,5.73
2018-11-14T05:12:20.501Z,5.79
2018-11-14T05:13:20.448Z,5.69
2018-11-14T05:14:20.433Z,5.72
2018-11-14T05:15:20.337Z,5.73
2018-11-14T05:16:20.277Z,5.72
2018-11-14T05:17:20.226Z,5.75
2018-11-14T05:18:20.172Z,5.79
2018-11-14T05:19:20.149Z,5.69
2018-11-14T05:20:20.060Z,5.73
2018-11-14T05:21:20.007Z,5.68
2018-11-14T05:22:19.992Z,5.79
2018-11-14T05:23:19.893Z,5.83
2018-11-14T05:24:19.888Z,5.80
2018-11-14T05:25:19.790Z,5.84
2018-11-14T05:26:19.735Z,5.89
2018-11-14T05:27:19.700Z,5.86
2018-11-14T05:28:19.611Z,5.91
2018-11-14T05:29:19.561Z,5.91
2018-11-14T05:30:19.503Z,5.91
2018-11-14T05:31:19.476Z,5.94
2018-11-14T05:32:19.392Z,5.93
2018-11-14T05:33:19.370Z,6.01
2018-11-14T05:34:19.278Z,6.01
2018-11-14T05:35:19.222Z,5.99
2018-11-14T05:36:19.206Z,6.04
2018-11-14T05:37:19.113Z,6.01
2018-11-14T05:38:19.092Z,6.05
2018-11-14T05:39:18.999Z,6.05
2018-11-14T05:40:19.065Z,6.07
2018-11-14T05:41:18.885Z,6.05
2018-11-14T05:42:18.835Z,6.07
2018-11-14T05:43:18.819Z,6.04
2018-11-14T05:44:18.724Z,6.01
2018-11-14T05:45:18.696Z,6.02
2018-11-14T05:46:18.611Z,6.07
2018-11-14T05:47:18.555Z,6.05
2018-11-14T05:48:18.531Z,5.97
2018-11-14T05:49:18.445Z,6.01
2018-11-14T05:50:18.410Z,6.02
2018-11-14T05:51:18.339Z,5.91
2018-11-14T05:52:18.277Z,5.94
2018-11-14T05:53:18.218Z,6.08
2018-11-14T05:54:18.197Z,6.01
2018-11-14T05:55:18.141Z,6.05
2018-11-14T05:56:18.057Z,6.07
2018-11-14T05:57:17.996Z,6.01
2018-11-14T05:58:17.945Z,6.01
2018-11-14T05:59:17.889Z,6.04
2018-11-14T06:00:17.860Z,6.08
2018-11-14T06:01:17.778Z,5.98
2018-11-14T06:02:17.720Z,5.87
2018-11-14T06:03:17.699Z,5.98
2018-11-14T06:04:17.607Z,5.87
2018-11-14T06:05:17.551Z,5.86
2018-11-14T06:06:17.498Z,5.71
2018-11-14T06:07:17.517Z,5.76
2018-11-14T06:08:17.423Z,5.72
2018-11-14T06:09:17.332Z,5.83
2018-11-14T06:10:17.280Z,5.68
2018-11-14T06:11:17.215Z,5.69
2018-11-14T06:12:17.164Z,5.62
2018-11-14T06:13:17.139Z,5.62
2018-11-14T06:14:17.052Z,5.64
2018-11-14T06:15:17.046Z,5.68
2018-11-14T06:16:16.939Z,5.56
2018-11-14T06:17:16.883Z,5.43
2018-11-14T06:18:16.868Z,5.47
2018-11-14T06:19:16.805Z,5.46
2018-11-14T06:20:16.713Z,5.38
2018-11-14T06:21:16.660Z,5.39
2018-11-14T06:22:16.605Z,5.38
2018-11-14T06:23:16.583Z,5.32
2018-11-14T06:24:16.492Z,5.26
2018-11-14T06:25:16.436Z,5.26
2018-11-14T06:26:16.381Z,5.30
2018-11-14T06:27:16.335Z,5.26
2018-11-14T06:28:16.300Z,5.26
2018-11-14T06:29:16.215Z,5.28
2018-11-14T06:30:16.195Z,5.26
2018-11-14T06:31:16.105Z,5.28
2018-11-14T06:32:16.049Z,5.23
2018-11-14T06:33:15.989Z,5.26
2018-11-14T06:34:15.933Z,5.11
2018-11-14T06:35:15.920Z,5.12
2018-11-14T06:36:15.826Z,5.12
2018-11-14T06:37:15.767Z,5.02
2018-11-14T06:38:15.710Z,5.04
2018-11-14T06:39:15.654Z,5.04
2018-11-14T06:40:15.629Z,4.93
2018-11-14T06:41:15.549Z,4.82
2018-11-14T06:42:15.493Z,4.94
2018-11-14T06:43:15.431Z,4.90
2018-11-14T06:44:15.374Z,4.90
2018-11-14T06:45:15.351Z,4.92
2018-11-14T06:46:15.294Z,4.84
2018-11-14T06:47:15.213Z,4.80
2018-11-14T06:48:15.152Z,4.80
2018-11-14T06:49:15.100Z,4.82
2018-11-14T06:50:15.073Z,4.84
2018-11-14T06:51:15.016Z,4.80
2018-11-14T06:52:14.929Z,4.75
2018-11-14T06:53:14.874Z,4.82
2018-11-14T06:54:14.812Z,4.78
2018-11-14T06:55:14.811Z,4.87
2018-11-14T06:56:14.703Z,4.84
2018-11-14T06:57:14.646Z,4.78
2018-11-14T06:58:14.591Z,4.89
2018-11-14T06:59:14.614Z,4.86
2018-11-14T07:00:14.509Z,5.00
2018-11-14T07:01:14.424Z,4.90
2018-11-14T07:02:14.400Z,4.89
2018-11-14T07:03:14.365Z,4.92
2018-11-14T07:04:14.250Z,4.92
2018-11-14T07:05:14.317Z,4.92
2018-11-14T07:06:14.197Z,4.93
2018-11-14T07:07:14.124Z,4.94
2018-11-14T07:08:14.060Z,4.92
2018-11-14T07:09:13.969Z,4.92
2018-11-14T07:10:13.916Z,4.78
2018-11-14T07:11:13.899Z,4.89
2018-11-14T07:12:13.799Z,4.82
2018-11-14T07:13:13.778Z,4.90
2018-11-14T07:14:13.696Z,4.94
2018-11-14T07:15:13.636Z,5.08
2018-11-14T07:16:13.576Z,5.14
2018-11-14T07:17:13.521Z,5.25
2018-11-14T07:18:13.498Z,5.46
2018-11-14T07:19:13.408Z,5.79
2018-11-14T07:20:13.354Z,6.22
2018-11-14T07:21:13.299Z,7.17
2018-11-14T07:22:13.241Z,7.79
2018-11-14T07:23:13.225Z,8.03
2018-11-14T07:24:13.141Z,7.87
2018-11-14T07:25:13.078Z,7.77
2018-11-14T07:26:13.023Z,7.57
2018-11-14T07:27:12.968Z,7.53
2018-11-14T07:28:12.959Z,7.54
2018-11-14T07:29:12.861Z,7.28
2018-11-14T07:30:12.809Z,7.15
2018-11-14T07:31:12.757Z,7.03
2018-11-14T07:32:12.786Z,6.92
2018-11-14T07:33:12.674Z,6.87
2018-11-14T07:34:12.621Z,7.05
2018-11-14T07:35:12.537Z,7.58
2018-11-14T07:36:12.482Z,8.15
2018-11-14T07:37:12.441Z,8.55
2018-11-14T07:38:12.410Z,8.89
2018-11-14T07:39:12.327Z,9.48
2018-11-14T07:40:12.305Z,9.58
2018-11-14T07:41:12.233Z,9.72
2018-11-14T07:42:12.168Z,9.54
2018-11-14T07:43:12.121Z,9.56
2018-11-14T07:44:12.099Z,9.66
2018-11-14T07:45:12.027Z,9.82
2018-11-14T07:46:11.969Z,10.05
2018-11-14T07:47:11.925Z,10.33
2018-11-14T07:48:11.874Z,11.22
2018-11-14T07:49:11.989Z,11.90
2018-11-14T07:50:11.830Z,12.45
2018-11-14T07:51:11.728Z,12.93
2018-11-14T07:52:11.684Z,13.23
2018-11-14T07:53:11.633Z,13.05
2018-11-14T07:54:11.615Z,12.86
2018-11-14T07:55:11.549Z,12.35
2018-11-14T07:56:11.494Z,11.69
2018-11-14T07:57:11.447Z,10.89
2018-11-14T07:58:11.405Z,10.86
2018-11-14T07:59:11.390Z,10.92
2018-11-14T08:00:11.309Z,11.41
2018-11-14T08:01:11.299Z,11.99
2018-11-14T08:02:11.284Z,12.32
2018-11-14T08:03:11.172Z,12.35
2018-11-14T08:04:11.128Z,12.43
2018-11-14T08:05:11.086Z,12.45
2018-11-14T08:06:11.072Z,12.45
2018-11-14T08:07:10.992Z,12.68
2018-11-14T08:08:10.988Z,12.87
2018-11-14T08:09:10.945Z,12.94
2018-11-14T08:10:10.857Z,12.95
2018-11-14T08:11:10.854Z,13.08
2018-11-14T08:12:10.769Z,12.90
2018-11-14T08:13:10.730Z,12.62
2018-11-14T08:14:10.688Z,12.65
2018-11-14T08:15:10.640Z,12.50
2018-11-14T08:16:10.625Z,12.28
2018-11-14T08:17:10.554Z,11.80
2018-11-14T08:18:10.541Z,11.18
2018-11-14T08:19:10.478Z,10.89
2018-11-14T08:20:10.431Z,10.63
2018-11-14T08:21:10.383Z,10.75
2018-11-14T08:22:10.337Z,10.48
2018-11-14T08:23:10.318Z,10.28
2018-11-14T08:24:10.246Z,9.99
2018-11-14T08:25:10.257Z,10.02
2018-11-14T08:26:10.164Z,9.77
2018-11-14T08:27:10.148Z,9.72
2018-11-14T08:28:10.064Z,9.50
2018-11-14T08:29:10.027Z,9.32
2018-11-14T08:30:09.975Z,9.25
2018-11-14T08:31:09.930Z,9.36
2018-11-14T08:32:09.910Z,9.29
2018-11-14T08:33:09.831Z,9.26
2018-11-14T08:34:09.818Z,9.21
2018-11-14T08:35:09.743Z,8.99
2018-11-14T08:36:09.694Z,8.88
2018-11-14T08:37:09.681Z,8.84
2018-11-14T08:38:09.598Z,9.13
2018-11-14T08:39:09.604Z,9.18
2018-11-14T08:40:09.497Z,9.22
2018-11-14T08:41:09.446Z,9.32
2018-11-14T08:42:09.437Z,9.41
2018-11-14T08:43:09.347Z,9.40
2018-11-14T08:44:09.298Z,9.34
2018-11-14T08:45:09.248Z,9.37
2018-11-14T08:46:09.205Z,9.54
2018-11-14T08:47:09.185Z,9.43
2018-11-14T08:48:09.906Z,9.36
2018-11-14T08:49:09.085Z,9.55
2018-11-14T08:50:09.040Z,9.62
2018-11-14T08:51:08.956Z,9.62
2018-11-14T08:52:08.904Z,9.66
2018-11-14T08:53:08.855Z,9.61
2018-11-14T08:54:08.845Z,9.62
2018-11-14T08:55:08.755Z,9.68
2018-11-14T08:56:08.707Z,9.72
2018-11-14T08:57:08.658Z,9.72
2018-11-14T08:58:08.680Z,9.77
2018-11-14T08:59:08.596Z,9.59
2018-11-14T09:00:08.507Z,9.66
2018-11-14T09:01:08.458Z,9.58
2018-11-14T09:02:08.412Z,9.73
2018-11-14T09:03:08.358Z,9.51
2018-11-14T09:04:08.414Z,9.66
2018-11-14T09:05:08.260Z,9.69
2018-11-14T09:06:08.211Z,9.86
2018-11-14T09:07:08.200Z,9.98
2018-11-14T09:08:08.109Z,10.23
2018-11-14T09:09:08.103Z,10.51
2018-11-14T09:10:08.014Z,10.53
2018-11-14T09:11:08.086Z,10.71
2018-11-14T09:12:07.941Z,10.78
2018-11-14T09:13:07.880Z,10.82
2018-11-14T09:14:07.846Z,10.87
2018-11-14T09:15:07.867Z,11.00
2018-11-14T09:16:07.709Z,10.93
2018-11-14T09:17:07.656Z,10.81
2018-11-14T09:18:07.662Z,10.94
2018-11-14T09:19:07.591Z,11.11
2018-11-14T09:20:07.558Z,11.33
2018-11-14T09:21:07.463Z,11.19
2018-11-14T09:22:07.415Z,11.05
2018-11-14T09:23:07.407Z,11.48
2018-11-14T09:24:07.314Z,12.09
2018-11-14T09:25:07.427Z,12.65
2018-11-14T09:26:07.214Z,13.16
2018-11-14T09:27:07.170Z,13.79
2018-11-14T09:28:07.121Z,14.08
2018-11-14T09:29:07.074Z,14.32
2018-11-14T09:30:07.065Z,14.81
2018-11-14T09:31:06.987Z,14.94
2018-11-14T09:32:06.930Z,15.18
2018-11-14T09:33:06.919Z,15.62
2018-11-14T09:34:06.839Z,15.86
2018-11-14T09:35:06.846Z,16.23
2018-11-14T09:36:06.756Z,15.94
2018-11-14T09:37:06.709Z,15.91
2018-11-14T09:38:06.662Z,16.38
2018-11-14T09:39:06.620Z,16.54
2018-11-14T09:40:06.620Z,16.75
2018-11-14T09:41:06.538Z,17.05
2018-11-14T09:42:06.491Z,16.75
2018-11-14T09:43:06.461Z,16.81
2018-11-14T09:44:06.404Z,16.75
2018-11-14T09:45:06.396Z,17.19
2018-11-14T09:46:06.356Z,17.39
2018-11-14T09:47:06.283Z,17.20
2018-11-14T09:48:06.241Z,17.38
2018-11-14T09:49:06.258Z,17.29
2018-11-14T09:50:06.160Z,16.93
2018-11-14T09:51:06.121Z,17.02
2018-11-14T09:52:06.076Z,16.96
2018-11-14T09:53:06.052Z,17.02
2018-11-14T09:54:06.031Z,17.27
2018-11-14T09:55:05.960Z,17.45
2018-11-14T09:56:05.945Z,17.98
2018-11-14T09:57:06.075Z,17.94
2018-11-14T09:58:05.833Z,17.92
2018-11-14T09:59:05.790Z,18.07
2018-11-14T10:00:05.758Z,18.44
2018-11-14T10:01:05.715Z,18.62
2018-11-14T10:02:05.716Z,18.43
2018-11-14T10:03:05.703Z,18.45
2018-11-14T10:04:05.610Z,18.37
2018-11-14T10:05:05.553Z,18.00
2018-11-14T10:06:05.568Z,18.16
2018-11-14T10:07:05.518Z,18.66
2018-11-14T10:08:05.520Z,18.60
2018-11-14T10:09:05.402Z,18.43
2018-11-14T10:10:05.357Z,18.41
2018-11-14T10:11:05.320Z,18.45
2018-11-14T10:12:05.317Z,18.01
2018-11-14T10:13:05.275Z,18.04
2018-11-14T10:14:05.255Z,17.83
2018-11-14T10:15:05.163Z,18.11
2018-11-14T10:16:05.124Z,18.01
2018-11-14T10:17:05.083Z,18.11
2018-11-14T10:18:05.076Z,18.11
2018-11-14T10:19:05.008Z,18.26
2018-11-14T10:20:04.966Z,18.52
2018-11-14T10:21:04.927Z,18.93
2018-11-14T10:22:04.884Z,18.92
2018-11-14T10:23:04.878Z,19.12
2018-11-14T10:24:04.876Z,19.40
2018-11-14T10:25:04.794Z,19.62
2018-11-14T10:26:04.722Z,19.26
2018-11-14T10:27:04.694Z,19.34
2018-11-14T10:28:04.667Z,19.63
2018-11-14T10:29:04.634Z,19.86
2018-11-14T10:30:04.616Z,19.96
2018-11-14T10:31:04.575Z,20.21
2018-11-14T10:32:04.482Z,20.00
2018-11-14T10:33:04.460Z,19.94
2018-11-14T10:34:04.406Z,19.00
2018-11-14T10:35:04.365Z,19.24
2018-11-14T10:36:04.372Z,19.39
2018-11-14T10:37:04.287Z,19.48
2018-11-14T10:38:04.292Z,19.69
2018-11-14T10:39:04.210Z,19.74
2018-11-14T10:40:04.161Z,19.89
2018-11-14T10:41:04.157Z,19.94
2018-11-14T10:42:04.080Z,20.22
2018-11-14T10:43:04.083Z,19.96
2018-11-14T10:44:03.996Z,19.88
2018-11-14T10:45:03.958Z,19.58
2018-11-14T10:46:03.972Z,19.09
2018-11-14T10:47:03.876Z,19.15
2018-11-14T10:48:03.838Z,18.80
2018-11-14T10:49:03.801Z,18.60
2018-11-14T10:50:03.756Z,18.38
2018-11-14T10:51:03.890Z,18.52
2018-11-14T10:52:03.674Z,18.58
2018-11-14T10:53:03.634Z,18.66
2018-11-14T10:54:03.587Z,18.44
2018-11-14T10:55:03.546Z,17.92
2018-11-14T10:56:03.541Z,16.93
2018-11-14T10:57:03.465Z,16.21
2018-11-14T10:58:03.418Z,16.35
2018-11-14T10:59:03.375Z,16.04
2018-11-14T11:00:03.370Z,15.97
2018-11-14T11:01:03.318Z,15.47
2018-11-14T11:02:03.250Z,15.25
2018-11-14T11:03:03.207Z,14.73
2018-11-14T11:04:03.159Z,14.30
2018-11-14T11:05:03.116Z,14.08
2018-11-14T11:06:03.116Z,13.89
2018-11-14T11:07:03.027Z,13.27
2018-11-14T11:08:03.029Z,12.85
2018-11-14T11:09:02.937Z,12.61
2018-11-14T11:10:02.892Z,12.62
2018-11-14T11:11:02.880Z,12.37
2018-11-14T11:12:02.804Z,11.91
2018-11-14T11:13:02.755Z,11.72
2018-11-14T11:14:02.706Z,11.54
2018-11-14T11:15:02.702Z,11.26
2018-11-14T11:16:02.618Z,10.92
2018-11-14T11:17:02.575Z,10.89
2018-11-14T11:18:02.519Z,10.97
2018-11-14T11:19:02.476Z,10.90
2018-11-14T11:20:02.459Z,10.96
2018-11-14T11:21:02.387Z,10.90
2018-11-14T11:22:02.332Z,10.79
2018-11-14T11:23:02.284Z,10.76
2018-11-14T11:24:02.267Z,10.79
2018-11-14T11:25:02.217Z,10.74
2018-11-14T11:26:02.169Z,10.79
2018-11-14T11:27:02.090Z,10.92
2018-11-14T11:28:02.043Z,10.90
2018-11-14T11:29:01.992Z,10.96
2018-11-14T11:30:01.942Z,10.93
2018-11-14T11:31:01.925Z,10.78
2018-11-14T11:32:01.861Z,10.61
2018-11-14T11:33:01.792Z,10.51
2018-11-14T11:34:01.745Z,10.51
2018-11-14T11:35:01.696Z,10.38
2018-11-14T11:36:01.685Z,10.04
2018-11-14T11:37:01.596Z,9.92
2018-11-14T11:38:01.556Z,9.84
2018-11-14T11:39:01.500Z,9.77
2018-11-14T11:40:01.456Z,9.76
2018-11-14T11:41:01.434Z,9.83
2018-11-14T11:42:01.350Z,9.97
2018-11-14T11:43:01.296Z,10.04
2018-11-14T11:44:01.247Z,9.91
2018-11-14T11:45:01.197Z,9.92
2018-11-14T11:46:01.202Z,9.95
2018-11-14T11:47:01.094Z,9.82
2018-11-14T11:48:01.050Z,9.86
2018-11-14T11:49:00.997Z,9.84
2018-11-14T11:50:00.972Z,9.95
2018-11-14T11:51:00.967Z,9.98
2018-11-14T11:52:00.875Z,10.09
2018-11-14T11:53:00.786Z,10.04
2018-11-14T11:54:00.741Z,9.95
2018-11-14T11:55:00.719Z,9.87
2018-11-14T11:56:00.646Z,9.77
2018-11-14T11:57:00.584Z,9.69
2018-11-14T11:58:00.532Z,9.41
2018-11-14T11:59:00.486Z,9.36
2018-11-14T12:00:00.537Z,9.37
2018-11-14T12:01:00.383Z,9.40
2018-11-14T12:02:00.373Z,9.34
2018-11-14T12:03:00.332Z,9.28
2018-11-14T12:04:00.224Z,9.19
2018-11-14T12:05:00.210Z,9.10
2018-11-14T12:06:00.227Z,9.08
2018-11-14T12:07:00.081Z,9.22
2018-11-14T12:08:00.023Z,9.26
2018-11-14T12:09:00.007Z,9.31
2018-11-14T12:09:59.916Z,9.41
2018-11-14T12:10:59.870Z,9.50
2018-11-14T12:11:59.814Z,9.64
2018-11-14T12:12:59.761Z,9.54
2018-11-14T12:13:59.747Z,9.56
2018-11-14T12:14:59.657Z,9.69
2018-11-14T12:15:59.604Z,9.72
2018-11-14T12:16:59.588Z,9.74
2018-11-14T12:17:59.501Z,9.83
2018-11-14T12:18:59.494Z,9.91
2018-11-14T12:19:59.396Z,9.91
2018-11-14T12:20:59.345Z,9.83
2018-11-14T12:21:59.336Z,9.98
2018-11-14T12:22:59.242Z,9.92
2018-11-14T12:23:59.211Z,9.87
2018-11-14T12:24:59.138Z,9.80
2018-11-14T12:25:59.090Z,9.86
2018-11-14T12:26:59.093Z,9.82
2018-11-14T12:27:58.993Z,9.74
2018-11-14T12:28:58.935Z,9.66
2018-11-14T12:29:58.926Z,9.74
2018-11-14T12:30:59.064Z,9.62
2018-11-14T12:31:58.810Z,9.62
2018-11-14T12:32:58.765Z,9.59
2018-11-14T12:33:58.671Z,9.59
2018-11-14T12:34:58.656Z,9.69
2018-11-14T12:35:58.571Z,9.66
2018-11-14T12:36:58.764Z,9.76
2018-11-14T12:37:58.502Z,9.65
2018-11-14T12:38:58.445Z,9.69
2018-11-14T12:39:58.366Z,9.68
2018-11-14T12:40:58.307Z,9.74
2018-11-14T12:41:58.312Z,9.80
2018-11-14T12:42:58.204Z,9.73
2018-11-14T12:43:58.150Z,9.72
2018-11-14T12:44:58.111Z,9.59
2018-11-14T12:45:58.046Z,9.55
2018-11-14T12:46:58.033Z,9.51
2018-11-14T12:47:57.940Z,9.54
2018-11-14T12:48:57.906Z,9.54
2018-11-14T12:49:57.873Z,9.61
2018-11-14T12:50:57.788Z,9.65
2018-11-14T12:51:57.767Z,9.83
2018-11-14T12:52:57.683Z,9.79
2018-11-14T12:53:57.631Z,9.83
2018-11-14T12:54:57.613Z,9.89
2018-11-14T12:55:57.527Z,9.94
2018-11-14T12:56:57.492Z,9.83
2018-11-14T12:57:57.428Z,9.91
2018-11-14T12:58:57.404Z,9.98
2018-11-14T12:59:57.334Z,9.94
2018-11-14T13:00:57.265Z,9.95
2018-11-14T13:01:57.219Z,9.92
2018-11-14T13:02:57.162Z,9.87
2018-11-14T13:03:57.143Z,10.13
2018-11-14T13:04:57.061Z,10.04
2018-11-14T13:05:57.007Z,9.95
2018-11-14T13:06:56.958Z,9.83
2018-11-14T13:07:56.935Z,9.77
2018-11-14T13:08:56.849Z,9.68
2018-11-14T13:09:56.800Z,9.54
2018-11-14T13:10:56.746Z,9.43
2018-11-14T13:11:56.730Z,9.48